sensor_id;sensor_type;location;lat;lon;timestamp;P1;durP1;ratioP1;P2;durP2;ratioP2
568;SDS011;269;48.884;9.192;2022-11-20T00:01:33;26.58;;;16.02;;
568;SDS011;269;48.884;9.192;2022-11-20T00:04:00;20.23;;;16.40;;
568;SDS011;269;48.884;9.192;2022-11-20T00:06:29;22.55;;;15.98;;
568;SDS011;269;48.884;9.192;2022-11-20T00:08:58;19.00;;;15.48;;
568;SDS011;269;48.884;9.192;2022-11-20T00:11:27;20.70;;;14.77;;
568;SDS011;269;48.884;9.192;2022-11-20T00:13:58;18.63;;;13.43;;
568;SDS011;269;48.884;9.192;2022-11-20T00:16:27;19.65;;;14.48;;
568;SDS011;269;48.884;9.192;2022-11-20T00:18:56;47.45;;;15.40;;
568;SDS011;269;48.884;9.192;2022-11-20T00:21:23;32.28;;;16.00;;
568;SDS011;269;48.884;9.192;2022-11-20T00:23:55;23.60;;;14.48;;
568;SDS011;269;48.884;9.192;2022-11-20T00:26:24;17.05;;;12.95;;
568;SDS011;269;48.884;9.192;2022-11-20T00:28:52;56.70;;;16.83;;
568;SDS011;269;48.884;9.192;2022-11-20T00:31:21;23.42;;;16.02;;
568;SDS011;269;48.884;9.192;2022-11-20T00:33:48;20.77;;;15.73;;
568;SDS011;269;48.884;9.192;2022-11-20T00:36:16;15.82;;;14.15;;
568;SDS011;269;48.884;9.192;2022-11-20T00:38:45;16.00;;;14.30;;
568;SDS011;269;48.884;9.192;2022-11-20T00:41:14;16.70;;;14.40;;
568;SDS011;269;48.884;9.192;2022-11-20T00:43:42;16.33;;;14.50;;
568;SDS011;269;48.884;9.192;2022-11-20T00:46:12;14.90;;;13.27;;
568;SDS011;269;48.884;9.192;2022-11-20T00:48:40;13.98;;;12.30;;
568;SDS011;269;48.884;9.192;2022-11-20T00:51:08;14.73;;;13.18;;
568;SDS011;269;48.884;9.192;2022-11-20T00:53:37;14.68;;;13.18;;
568;SDS011;269;48.884;9.192;2022-11-20T00:56:06;14.15;;;12.45;;
568;SDS011;269;48.884;9.192;2022-11-20T00:58:37;15.02;;;13.32;;
568;SDS011;269;48.884;9.192;2022-11-20T01:01:07;24.52;;;12.15;;
568;SDS011;269;48.884;9.192;2022-11-20T01:03:36;17.23;;;12.75;;
568;SDS011;269;48.884;9.192;2022-11-20T01:06:06;19.05;;;12.55;;
568;SDS011;269;48.884;9.192;2022-11-20T01:08:35;13.80;;;12.23;;
568;SDS011;269;48.884;9.192;2022-11-20T01:11:04;20.52;;;13.07;;
568;SDS011;269;48.884;9.192;2022-11-20T01:13:32;13.98;;;12.57;;
568;SDS011;269;48.884;9.192;2022-11-20T01:16:09;13.93;;;11.90;;
568;SDS011;269;48.884;9.192;2022-11-20T01:18:38;13.60;;;12.20;;
568;SDS011;269;48.884;9.192;2022-11-20T01:21:08;13.85;;;12.30;;
568;SDS011;269;48.884;9.192;2022-11-20T01:23:37;15.55;;;13.45;;
568;SDS011;269;48.884;9.192;2022-11-20T01:26:06;13.52;;;12.13;;
568;SDS011;269;48.884;9.192;2022-11-20T01:28:35;13.35;;;11.98;;
568;SDS011;269;48.884;9.192;2022-11-20T01:31:11;13.73;;;12.25;;
568;SDS011;269;48.884;9.192;2022-11-20T01:33:39;16.88;;;12.35;;
568;SDS011;269;48.884;9.192;2022-11-20T01:36:08;41.25;;;13.52;;
568;SDS011;269;48.884;9.192;2022-11-20T01:38:35;49.03;;;13.23;;
568;SDS011;269;48.884;9.192;2022-11-20T01:41:03;17.20;;;12.55;;
568;SDS011;269;48.884;9.192;2022-11-20T01:43:30;67.43;;;14.48;;
568;SDS011;269;48.884;9.192;2022-11-20T01:45:58;109.18;;;18.60;;
568;SDS011;269;48.884;9.192;2022-11-20T01:48:31;36.20;;;13.70;;
568;SDS011;269;48.884;9.192;2022-11-20T01:51:02;76.80;;;17.27;;
568;SDS011;269;48.884;9.192;2022-11-20T01:53:32;61.25;;;14.95;;
568;SDS011;269;48.884;9.192;2022-11-20T01:56:04;38.17;;;15.60;;
568;SDS011;269;48.884;9.192;2022-11-20T01:58:35;22.52;;;12.70;;
568;SDS011;269;48.884;9.192;2022-11-20T02:01:07;20.80;;;12.65;;
568;SDS011;269;48.884;9.192;2022-11-20T02:03:36;42.72;;;14.23;;
568;SDS011;269;48.884;9.192;2022-11-20T02:06:04;75.13;;;18.88;;
568;SDS011;269;48.884;9.192;2022-11-20T02:08:37;34.92;;;13.45;;
568;SDS011;269;48.884;9.192;2022-11-20T02:11:04;97.43;;;17.95;;
568;SDS011;269;48.884;9.192;2022-11-20T02:13:33;64.80;;;17.40;;
568;SDS011;269;48.884;9.192;2022-11-20T02:16:16;24.20;;;14.05;;
568;SDS011;269;48.884;9.192;2022-11-20T02:18:47;15.30;;;13.68;;
568;SDS011;269;48.884;9.192;2022-11-20T02:21:24;13.20;;;11.80;;
568;SDS011;269;48.884;9.192;2022-11-20T02:24:08;14.65;;;12.73;;
568;SDS011;269;48.884;9.192;2022-11-20T02:26:40;15.30;;;13.00;;
568;SDS011;269;48.884;9.192;2022-11-20T02:29:10;13.13;;;11.70;;
568;SDS011;269;48.884;9.192;2022-11-20T02:31:37;13.27;;;11.90;;
568;SDS011;269;48.884;9.192;2022-11-20T02:34:09;12.85;;;11.18;;
568;SDS011;269;48.884;9.192;2022-11-20T02:36:36;12.73;;;11.43;;
568;SDS011;269;48.884;9.192;2022-11-20T02:39:10;13.80;;;12.40;;
568;SDS011;269;48.884;9.192;2022-11-20T02:41:41;14.02;;;12.63;;
568;SDS011;269;48.884;9.192;2022-11-20T02:44:09;11.73;;;10.52;;
568;SDS011;269;48.884;9.192;2022-11-20T02:46:36;12.32;;;11.13;;
568;SDS011;269;48.884;9.192;2022-11-20T02:49:04;12.55;;;11.25;;
568;SDS011;269;48.884;9.192;2022-11-20T02:51:32;13.00;;;11.60;;
568;SDS011;269;48.884;9.192;2022-11-20T02:53:59;11.80;;;10.65;;
568;SDS011;269;48.884;9.192;2022-11-20T02:56:28;12.00;;;10.80;;
568;SDS011;269;48.884;9.192;2022-11-20T02:58:55;11.35;;;10.10;;
568;SDS011;269;48.884;9.192;2022-11-20T03:01:22;11.65;;;10.45;;
568;SDS011;269;48.884;9.192;2022-11-20T03:03:49;11.30;;;10.10;;
568;SDS011;269;48.884;9.192;2022-11-20T03:06:18;11.45;;;10.25;;
568;SDS011;269;48.884;9.192;2022-11-20T03:08:45;10.02;;;9.10;;
568;SDS011;269;48.884;9.192;2022-11-20T03:11:13;9.02;;;8.10;;
568;SDS011;269;48.884;9.192;2022-11-20T03:13:41;9.13;;;8.32;;
568;SDS011;269;48.884;9.192;2022-11-20T03:16:09;8.65;;;7.80;;
568;SDS011;269;48.884;9.192;2022-11-20T03:18:37;7.50;;;6.90;;
568;SDS011;269;48.884;9.192;2022-11-20T03:21:05;8.05;;;7.35;;
568;SDS011;269;48.884;9.192;2022-11-20T03:23:32;7.50;;;6.80;;
568;SDS011;269;48.884;9.192;2022-11-20T03:26:10;6.30;;;5.70;;
568;SDS011;269;48.884;9.192;2022-11-20T03:28:41;7.10;;;6.50;;
568;SDS011;269;48.884;9.192;2022-11-20T03:31:10;6.38;;;5.78;;
568;SDS011;269;48.884;9.192;2022-11-20T03:33:40;6.30;;;5.70;;
568;SDS011;269;48.884;9.192;2022-11-20T03:36:09;6.50;;;6.00;;
568;SDS011;269;48.884;9.192;2022-11-20T03:38:38;5.68;;;5.18;;
568;SDS011;269;48.884;9.192;2022-11-20T03:41:07;5.65;;;4.90;;
568;SDS011;269;48.884;9.192;2022-11-20T03:43:35;5.75;;;5.25;;
568;SDS011;269;48.884;9.192;2022-11-20T03:46:04;5.10;;;4.70;;
568;SDS011;269;48.884;9.192;2022-11-20T03:48:32;6.13;;;4.93;;
568;SDS011;269;48.884;9.192;2022-11-20T03:51:06;5.43;;;4.93;;
568;SDS011;269;48.884;9.192;2022-11-20T03:53:34;4.97;;;4.28;;
568;SDS011;269;48.884;9.192;2022-11-20T03:56:02;4.93;;;4.53;;
568;SDS011;269;48.884;9.192;2022-11-20T03:58:29;5.28;;;4.68;;
568;SDS011;269;48.884;9.192;2022-11-20T04:00:57;4.78;;;4.40;;
568;SDS011;269;48.884;9.192;2022-11-20T04:03:25;4.53;;;4.13;;
568;SDS011;269;48.884;9.192;2022-11-20T04:05:52;5.00;;;4.60;;
568;SDS011;269;48.884;9.192;2022-11-20T04:08:19;4.30;;;3.90;;
568;SDS011;269;48.884;9.192;2022-11-20T04:10:46;4.78;;;3.95;;
568;SDS011;269;48.884;9.192;2022-11-20T04:13:13;4.55;;;4.25;;
568;SDS011;269;48.884;9.192;2022-11-20T04:15:40;4.50;;;3.70;;
568;SDS011;269;48.884;9.192;2022-11-20T04:18:07;4.10;;;3.80;;
568;SDS011;269;48.884;9.192;2022-11-20T04:20:37;4.85;;;4.45;;
568;SDS011;269;48.884;9.192;2022-11-20T04:23:05;4.55;;;4.15;;
568;SDS011;269;48.884;9.192;2022-11-20T04:25:32;4.05;;;3.75;;
568;SDS011;269;48.884;9.192;2022-11-20T04:27:59;4.60;;;4.20;;
568;SDS011;269;48.884;9.192;2022-11-20T04:30:26;4.40;;;4.10;;
568;SDS011;269;48.884;9.192;2022-11-20T04:32:53;4.40;;;4.00;;
568;SDS011;269;48.884;9.192;2022-11-20T04:35:20;5.97;;;4.30;;
568;SDS011;269;48.884;9.192;2022-11-20T04:37:49;4.53;;;3.85;;
568;SDS011;269;48.884;9.192;2022-11-20T04:40:17;4.18;;;3.78;;
568;SDS011;269;48.884;9.192;2022-11-20T04:42:44;4.78;;;4.35;;
568;SDS011;269;48.884;9.192;2022-11-20T04:45:13;4.30;;;3.92;;
568;SDS011;269;48.884;9.192;2022-11-20T04:47:40;4.45;;;4.05;;
568;SDS011;269;48.884;9.192;2022-11-20T04:50:07;4.00;;;3.70;;
568;SDS011;269;48.884;9.192;2022-11-20T04:52:35;4.88;;;4.47;;
568;SDS011;269;48.884;9.192;2022-11-20T04:55:04;4.63;;;4.22;;
568;SDS011;269;48.884;9.192;2022-11-20T04:57:31;4.60;;;4.30;;
568;SDS011;269;48.884;9.192;2022-11-20T04:59:59;4.35;;;4.05;;
568;SDS011;269;48.884;9.192;2022-11-20T05:02:25;4.47;;;4.05;;
568;SDS011;269;48.884;9.192;2022-11-20T05:04:52;4.53;;;4.07;;
568;SDS011;269;48.884;9.192;2022-11-20T05:07:20;4.85;;;4.40;;
568;SDS011;269;48.884;9.192;2022-11-20T05:09:48;5.38;;;4.88;;
568;SDS011;269;48.884;9.192;2022-11-20T05:12:16;4.95;;;4.40;;
568;SDS011;269;48.884;9.192;2022-11-20T05:14:45;4.97;;;4.57;;
568;SDS011;269;48.884;9.192;2022-11-20T05:17:12;4.20;;;3.80;;
568;SDS011;269;48.884;9.192;2022-11-20T05:19:39;5.30;;;4.80;;
568;SDS011;269;48.884;9.192;2022-11-20T05:22:07;4.28;;;3.95;;
568;SDS011;269;48.884;9.192;2022-11-20T05:24:34;7.40;;;4.60;;
568;SDS011;269;48.884;9.192;2022-11-20T05:27:01;4.60;;;4.20;;
568;SDS011;269;48.884;9.192;2022-11-20T05:29:30;4.72;;;4.32;;
568;SDS011;269;48.884;9.192;2022-11-20T05:31:57;4.70;;;4.30;;
568;SDS011;269;48.884;9.192;2022-11-20T05:34:24;4.70;;;4.28;;
568;SDS011;269;48.884;9.192;2022-11-20T05:36:52;4.60;;;4.18;;
568;SDS011;269;48.884;9.192;2022-11-20T05:39:20;4.07;;;3.75;;
568;SDS011;269;48.884;9.192;2022-11-20T05:41:47;4.28;;;3.88;;
568;SDS011;269;48.884;9.192;2022-11-20T05:44:36;4.93;;;4.53;;
568;SDS011;269;48.884;9.192;2022-11-20T05:47:03;4.80;;;4.50;;
568;SDS011;269;48.884;9.192;2022-11-20T05:49:31;4.88;;;4.47;;
568;SDS011;269;48.884;9.192;2022-11-20T05:51:58;5.82;;;4.32;;
568;SDS011;269;48.884;9.192;2022-11-20T05:54:25;5.03;;;4.53;;
568;SDS011;269;48.884;9.192;2022-11-20T05:56:52;5.50;;;5.03;;
568;SDS011;269;48.884;9.192;2022-11-20T05:59:19;4.95;;;4.55;;
568;SDS011;269;48.884;9.192;2022-11-20T06:01:47;6.57;;;4.22;;
568;SDS011;269;48.884;9.192;2022-11-20T06:04:15;4.93;;;4.43;;
568;SDS011;269;48.884;9.192;2022-11-20T06:06:42;4.93;;;4.43;;
568;SDS011;269;48.884;9.192;2022-11-20T06:09:09;5.38;;;4.55;;
568;SDS011;269;48.884;9.192;2022-11-20T06:11:36;5.38;;;4.85;;
568;SDS011;269;48.884;9.192;2022-11-20T06:14:03;4.72;;;4.32;;
568;SDS011;269;48.884;9.192;2022-11-20T06:16:30;4.65;;;4.22;;
568;SDS011;269;48.884;9.192;2022-11-20T06:18:59;4.00;;;3.70;;
568;SDS011;269;48.884;9.192;2022-11-20T06:21:26;4.18;;;3.88;;
568;SDS011;269;48.884;9.192;2022-11-20T06:23:55;4.00;;;3.70;;
568;SDS011;269;48.884;9.192;2022-11-20T06:26:22;3.65;;;3.35;;
568;SDS011;269;48.884;9.192;2022-11-20T06:28:51;3.80;;;3.50;;
568;SDS011;269;48.884;9.192;2022-11-20T06:31:20;4.95;;;3.55;;
568;SDS011;269;48.884;9.192;2022-11-20T06:33:48;3.92;;;3.53;;
568;SDS011;269;48.884;9.192;2022-11-20T06:36:18;4.05;;;3.05;;
568;SDS011;269;48.884;9.192;2022-11-20T06:38:47;3.58;;;3.28;;
568;SDS011;269;48.884;9.192;2022-11-20T06:41:15;3.40;;;3.10;;
568;SDS011;269;48.884;9.192;2022-11-20T06:43:43;3.90;;;3.60;;
568;SDS011;269;48.884;9.192;2022-11-20T06:46:11;4.32;;;3.10;;
568;SDS011;269;48.884;9.192;2022-11-20T06:48:39;3.47;;;3.10;;
568;SDS011;269;48.884;9.192;2022-11-20T06:51:07;2.83;;;2.63;;
568;SDS011;269;48.884;9.192;2022-11-20T06:53:35;3.60;;;2.78;;
568;SDS011;269;48.884;9.192;2022-11-20T06:56:04;3.58;;;2.83;;
568;SDS011;269;48.884;9.192;2022-11-20T06:58:33;3.00;;;2.80;;
568;SDS011;269;48.884;9.192;2022-11-20T07:01:02;2.67;;;2.40;;
568;SDS011;269;48.884;9.192;2022-11-20T07:03:31;3.33;;;2.50;;
568;SDS011;269;48.884;9.192;2022-11-20T07:05:58;3.00;;;2.70;;
568;SDS011;269;48.884;9.192;2022-11-20T07:08:27;2.50;;;2.30;;
568;SDS011;269;48.884;9.192;2022-11-20T07:10:58;2.85;;;2.33;;
568;SDS011;269;48.884;9.192;2022-11-20T07:13:26;2.50;;;2.30;;
568;SDS011;269;48.884;9.192;2022-11-20T07:15:52;2.65;;;2.38;;
568;SDS011;269;48.884;9.192;2022-11-20T07:18:20;2.97;;;2.67;;
568;SDS011;269;48.884;9.192;2022-11-20T07:20:47;2.60;;;2.40;;
568;SDS011;269;48.884;9.192;2022-11-20T07:23:14;3.05;;;2.60;;
568;SDS011;269;48.884;9.192;2022-11-20T07:25:42;2.33;;;2.13;;
568;SDS011;269;48.884;9.192;2022-11-20T07:28:11;2.00;;;1.90;;
568;SDS011;269;48.884;9.192;2022-11-20T07:30:39;2.95;;;2.35;;
568;SDS011;269;48.884;9.192;2022-11-20T07:33:06;2.33;;;2.13;;
568;SDS011;269;48.884;9.192;2022-11-20T07:35:33;2.85;;;2.35;;
568;SDS011;269;48.884;9.192;2022-11-20T07:38:01;2.78;;;2.50;;
568;SDS011;269;48.884;9.192;2022-11-20T07:40:28;2.60;;;2.40;;
568;SDS011;269;48.884;9.192;2022-11-20T07:42:55;3.00;;;2.80;;
568;SDS011;269;48.884;9.192;2022-11-20T07:45:24;3.85;;;2.70;;
568;SDS011;269;48.884;9.192;2022-11-20T07:47:52;2.60;;;2.40;;
568;SDS011;269;48.884;9.192;2022-11-20T07:50:19;2.60;;;2.40;;
568;SDS011;269;48.884;9.192;2022-11-20T07:52:47;2.75;;;2.50;;
568;SDS011;269;48.884;9.192;2022-11-20T07:55:14;2.75;;;2.55;;
568;SDS011;269;48.884;9.192;2022-11-20T07:57:42;4.32;;;2.60;;
568;SDS011;269;48.884;9.192;2022-11-20T08:00:09;2.60;;;2.40;;
568;SDS011;269;48.884;9.192;2022-11-20T08:02:39;2.95;;;2.65;;
568;SDS011;269;48.884;9.192;2022-11-20T08:05:07;2.80;;;2.33;;
568;SDS011;269;48.884;9.192;2022-11-20T08:07:35;2.42;;;2.22;;
568;SDS011;269;48.884;9.192;2022-11-20T08:10:04;2.80;;;2.60;;
568;SDS011;269;48.884;9.192;2022-11-20T08:12:32;3.10;;;2.80;;
568;SDS011;269;48.884;9.192;2022-11-20T08:15:17;2.83;;;2.60;;
568;SDS011;269;48.884;9.192;2022-11-20T08:17:45;2.50;;;2.40;;
568;SDS011;269;48.884;9.192;2022-11-20T08:20:12;2.42;;;2.17;;
568;SDS011;269;48.884;9.192;2022-11-20T08:22:39;2.50;;;2.40;;
568;SDS011;269;48.884;9.192;2022-11-20T08:25:07;1.98;;;1.85;;
568;SDS011;269;48.884;9.192;2022-11-20T08:27:35;3.42;;;2.20;;
568;SDS011;269;48.884;9.192;2022-11-20T08:30:02;3.10;;;2.80;;
568;SDS011;269;48.884;9.192;2022-11-20T08:32:30;2.38;;;2.20;;
568;SDS011;269;48.884;9.192;2022-11-20T08:34:58;2.38;;;2.17;;
568;SDS011;269;48.884;9.192;2022-11-20T08:37:25;1.83;;;1.73;;
568;SDS011;269;48.884;9.192;2022-11-20T08:39:52;3.63;;;1.83;;
568;SDS011;269;48.884;9.192;2022-11-20T08:42:22;2.13;;;1.92;;
568;SDS011;269;48.884;9.192;2022-11-20T08:44:49;2.55;;;1.50;;
568;SDS011;269;48.884;9.192;2022-11-20T08:47:16;1.70;;;1.60;;
568;SDS011;269;48.884;9.192;2022-11-20T08:49:43;1.60;;;1.50;;
568;SDS011;269;48.884;9.192;2022-11-20T08:52:12;6.45;;;1.80;;
568;SDS011;269;48.884;9.192;2022-11-20T08:54:40;1.45;;;1.35;;
568;SDS011;269;48.884;9.192;2022-11-20T08:57:07;1.80;;;1.40;;
568;SDS011;269;48.884;9.192;2022-11-20T08:59:34;1.55;;;1.45;;
568;SDS011;269;48.884;9.192;2022-11-20T09:02:03;2.20;;;2.00;;
568;SDS011;269;48.884;9.192;2022-11-20T09:04:30;1.33;;;1.23;;
568;SDS011;269;48.884;9.192;2022-11-20T09:06:59;1.23;;;1.13;;
568;SDS011;269;48.884;9.192;2022-11-20T09:09:28;1.52;;;1.20;;
568;SDS011;269;48.884;9.192;2022-11-20T09:11:55;1.02;;;0.93;;
568;SDS011;269;48.884;9.192;2022-11-20T09:14:22;1.08;;;0.98;;
568;SDS011;269;48.884;9.192;2022-11-20T09:16:54;1.10;;;1.00;;
568;SDS011;269;48.884;9.192;2022-11-20T09:19:21;1.65;;;1.35;;
568;SDS011;269;48.884;9.192;2022-11-20T09:21:50;1.35;;;1.25;;
568;SDS011;269;48.884;9.192;2022-11-20T09:24:17;1.33;;;1.23;;
568;SDS011;269;48.884;9.192;2022-11-20T09:26:47;1.60;;;1.50;;
568;SDS011;269;48.884;9.192;2022-11-20T09:29:14;1.10;;;1.00;;
568;SDS011;269;48.884;9.192;2022-11-20T09:31:41;1.10;;;1.00;;
568;SDS011;269;48.884;9.192;2022-11-20T09:34:08;1.27;;;1.17;;
568;SDS011;269;48.884;9.192;2022-11-20T09:36:36;1.58;;;1.48;;
568;SDS011;269;48.884;9.192;2022-11-20T09:39:03;1.23;;;1.10;;
568;SDS011;269;48.884;9.192;2022-11-20T09:41:34;1.55;;;1.10;;
568;SDS011;269;48.884;9.192;2022-11-20T09:44:18;1.35;;;1.20;;
568;SDS011;269;48.884;9.192;2022-11-20T09:46:57;1.33;;;1.23;;
568;SDS011;269;48.884;9.192;2022-11-20T09:49:36;1.38;;;1.27;;
568;SDS011;269;48.884;9.192;2022-11-20T09:52:15;1.63;;;1.52;;
568;SDS011;269;48.884;9.192;2022-11-20T09:54:48;1.00;;;0.90;;
568;SDS011;269;48.884;9.192;2022-11-20T09:57:17;1.20;;;1.10;;
568;SDS011;269;48.884;9.192;2022-11-20T09:59:49;1.65;;;1.55;;
568;SDS011;269;48.884;9.192;2022-11-20T10:02:25;1.38;;;1.27;;
568;SDS011;269;48.884;9.192;2022-11-20T10:04:58;1.60;;;1.50;;
568;SDS011;269;48.884;9.192;2022-11-20T10:07:30;1.15;;;1.10;;
568;SDS011;269;48.884;9.192;2022-11-20T10:10:04;1.50;;;1.40;;
568;SDS011;269;48.884;9.192;2022-11-20T10:12:34;1.70;;;1.60;;
568;SDS011;269;48.884;9.192;2022-11-20T10:15:21;3.25;;;1.58;;
568;SDS011;269;48.884;9.192;2022-11-20T10:17:58;1.58;;;1.48;;
568;SDS011;269;48.884;9.192;2022-11-20T10:20:40;2.60;;;1.80;;
568;SDS011;269;48.884;9.192;2022-11-20T10:23:24;1.60;;;1.50;;
568;SDS011;269;48.884;9.192;2022-11-20T10:26:00;1.83;;;1.65;;
568;SDS011;269;48.884;9.192;2022-11-20T10:28:39;1.60;;;1.50;;
568;SDS011;269;48.884;9.192;2022-11-20T10:31:25;1.48;;;1.38;;
568;SDS011;269;48.884;9.192;2022-11-20T10:33:56;1.55;;;1.45;;
568;SDS011;269;48.884;9.192;2022-11-20T10:36:28;1.90;;;1.33;;
568;SDS011;269;48.884;9.192;2022-11-20T10:39:01;1.45;;;1.10;;
568;SDS011;269;48.884;9.192;2022-11-20T10:41:32;1.33;;;1.00;;
568;SDS011;269;48.884;9.192;2022-11-20T10:44:05;1.40;;;1.30;;
568;SDS011;269;48.884;9.192;2022-11-20T10:46:43;1.60;;;1.50;;
568;SDS011;269;48.884;9.192;2022-11-20T10:49:12;2.03;;;1.50;;
568;SDS011;269;48.884;9.192;2022-11-20T10:51:44;2.35;;;1.30;;
568;SDS011;269;48.884;9.192;2022-11-20T10:54:23;1.30;;;1.20;;
568;SDS011;269;48.884;9.192;2022-11-20T10:57:00;1.95;;;1.50;;
568;SDS011;269;48.884;9.192;2022-11-20T10:59:38;3.17;;;2.10;;
568;SDS011;269;48.884;9.192;2022-11-20T11:05:11;2.30;;;2.10;;
568;SDS011;269;48.884;9.192;2022-11-20T11:07:43;2.85;;;2.65;;
568;SDS011;269;48.884;9.192;2022-11-20T11:10:13;2.88;;;2.65;;
568;SDS011;269;48.884;9.192;2022-11-20T11:12:43;2.97;;;2.78;;
568;SDS011;269;48.884;9.192;2022-11-20T11:15:14;2.80;;;2.60;;
568;SDS011;269;48.884;9.192;2022-11-20T11:17:53;3.80;;;2.80;;
568;SDS011;269;48.884;9.192;2022-11-20T11:20:22;3.00;;;2.80;;
568;SDS011;269;48.884;9.192;2022-11-20T11:22:51;3.10;;;2.85;;
568;SDS011;269;48.884;9.192;2022-11-20T11:25:21;3.20;;;2.92;;
568;SDS011;269;48.884;9.192;2022-11-20T11:27:54;2.80;;;2.60;;
568;SDS011;269;48.884;9.192;2022-11-20T11:30:23;2.10;;;2.00;;
568;SDS011;269;48.884;9.192;2022-11-20T11:33:02;2.38;;;2.08;;
568;SDS011;269;48.884;9.192;2022-11-20T11:35:32;3.75;;;2.10;;
568;SDS011;269;48.884;9.192;2022-11-20T11:38:02;2.30;;;2.10;;
568;SDS011;269;48.884;9.192;2022-11-20T11:40:33;3.35;;;2.10;;
568;SDS011;269;48.884;9.192;2022-11-20T11:43:05;1.90;;;1.70;;
568;SDS011;269;48.884;9.192;2022-11-20T11:46:05;4.20;;;2.08;;
568;SDS011;269;48.884;9.192;2022-11-20T11:48:55;1.83;;;1.73;;
568;SDS011;269;48.884;9.192;2022-11-20T11:51:24;2.28;;;1.80;;
568;SDS011;269;48.884;9.192;2022-11-20T11:53:56;2.42;;;1.92;;
568;SDS011;269;48.884;9.192;2022-11-20T11:56:26;2.03;;;1.83;;
568;SDS011;269;48.884;9.192;2022-11-20T11:58:54;1.90;;;1.70;;
568;SDS011;269;48.884;9.192;2022-11-20T12:01:27;3.45;;;2.00;;
568;SDS011;269;48.884;9.192;2022-11-20T12:04:02;2.00;;;1.42;;
568;SDS011;269;48.884;9.192;2022-11-20T12:06:32;3.08;;;1.75;;
568;SDS011;269;48.884;9.192;2022-11-20T12:09:03;1.67;;;1.58;;
568;SDS011;269;48.884;9.192;2022-11-20T12:11:33;1.73;;;1.60;;
568;SDS011;269;48.884;9.192;2022-11-20T12:14:09;3.70;;;1.88;;
568;SDS011;269;48.884;9.192;2022-11-20T12:16:41;1.38;;;1.27;;
568;SDS011;269;48.884;9.192;2022-11-20T12:19:11;1.73;;;1.35;;
568;SDS011;269;48.884;9.192;2022-11-20T12:21:43;2.25;;;1.20;;
568;SDS011;269;48.884;9.192;2022-11-20T12:24:32;2.20;;;1.20;;
568;SDS011;269;48.884;9.192;2022-11-20T12:27:22;2.08;;;1.65;;
568;SDS011;269;48.884;9.192;2022-11-20T12:30:05;4.40;;;1.40;;
568;SDS011;269;48.884;9.192;2022-11-20T12:33:00;1.50;;;1.40;;
568;SDS011;269;48.884;9.192;2022-11-20T12:35:51;2.35;;;1.20;;
568;SDS011;269;48.884;9.192;2022-11-20T12:38:32;1.60;;;1.20;;
568;SDS011;269;48.884;9.192;2022-11-20T12:41:13;1.20;;;0.93;;
568;SDS011;269;48.884;9.192;2022-11-20T12:44:15;1.60;;;1.10;;
568;SDS011;269;48.884;9.192;2022-11-20T12:47:11;1.33;;;1.20;;
568;SDS011;269;48.884;9.192;2022-11-20T12:49:47;1.27;;;1.17;;
568;SDS011;269;48.884;9.192;2022-11-20T12:52:30;1.50;;;1.05;;
568;SDS011;269;48.884;9.192;2022-11-20T12:55:13;1.50;;;1.20;;
568;SDS011;269;48.884;9.192;2022-11-20T12:57:49;2.38;;;1.00;;
568;SDS011;269;48.884;9.192;2022-11-20T13:00:22;2.03;;;1.00;;
568;SDS011;269;48.884;9.192;2022-11-20T13:06:06;1.98;;;1.10;;
568;SDS011;269;48.884;9.192;2022-11-20T13:08:41;1.00;;;0.85;;
568;SDS011;269;48.884;9.192;2022-11-20T13:11:14;2.75;;;1.13;;
568;SDS011;269;48.884;9.192;2022-11-20T13:13:54;2.08;;;1.00;;
568;SDS011;269;48.884;9.192;2022-11-20T13:16:33;2.92;;;1.42;;
568;SDS011;269;48.884;9.192;2022-11-20T13:19:04;2.03;;;1.30;;
568;SDS011;269;48.884;9.192;2022-11-20T13:21:36;1.10;;;1.00;;
568;SDS011;269;48.884;9.192;2022-11-20T13:24:06;1.30;;;1.10;;
568;SDS011;269;48.884;9.192;2022-11-20T13:26:48;1.60;;;1.00;;
568;SDS011;269;48.884;9.192;2022-11-20T13:29:27;2.58;;;1.55;;
568;SDS011;269;48.884;9.192;2022-11-20T13:32:02;1.42;;;1.20;;
568;SDS011;269;48.884;9.192;2022-11-20T13:34:33;3.22;;;1.10;;
568;SDS011;269;48.884;9.192;2022-11-20T13:37:01;2.95;;;1.50;;
568;SDS011;269;48.884;9.192;2022-11-20T13:39:32;1.75;;;0.70;;
568;SDS011;269;48.884;9.192;2022-11-20T13:42:02;2.05;;;1.05;;
568;SDS011;269;48.884;9.192;2022-11-20T13:44:47;0.95;;;0.85;;
568;SDS011;269;48.884;9.192;2022-11-20T13:47:19;2.60;;;0.90;;
568;SDS011;269;48.884;9.192;2022-11-20T13:49:48;1.67;;;1.00;;
568;SDS011;269;48.884;9.192;2022-11-20T13:52:29;1.85;;;0.98;;
568;SDS011;269;48.884;9.192;2022-11-20T13:55:12;0.80;;;0.80;;
568;SDS011;269;48.884;9.192;2022-11-20T13:57:54;1.45;;;0.90;;
568;SDS011;269;48.884;9.192;2022-11-20T14:00:46;1.30;;;1.02;;
568;SDS011;269;48.884;9.192;2022-11-20T14:03:20;1.40;;;0.90;;
568;SDS011;269;48.884;9.192;2022-11-20T14:05:51;1.25;;;1.15;;
568;SDS011;269;48.884;9.192;2022-11-20T14:08:28;2.00;;;0.90;;
568;SDS011;269;48.884;9.192;2022-11-20T14:11:05;2.17;;;1.08;;
568;SDS011;269;48.884;9.192;2022-11-20T14:13:50;1.48;;;1.10;;
568;SDS011;269;48.884;9.192;2022-11-20T14:16:23;1.10;;;1.00;;
568;SDS011;269;48.884;9.192;2022-11-20T14:18:51;1.67;;;1.00;;
568;SDS011;269;48.884;9.192;2022-11-20T14:21:25;2.58;;;0.93;;
568;SDS011;269;48.884;9.192;2022-11-20T14:24:02;4.93;;;1.38;;
568;SDS011;269;48.884;9.192;2022-11-20T14:26:33;1.23;;;1.13;;
568;SDS011;269;48.884;9.192;2022-11-20T14:29:02;2.20;;;1.25;;
568;SDS011;269;48.884;9.192;2022-11-20T14:31:29;1.23;;;1.00;;
568;SDS011;269;48.884;9.192;2022-11-20T14:33:57;1.63;;;0.95;;
568;SDS011;269;48.884;9.192;2022-11-20T14:36:24;1.10;;;1.00;;
568;SDS011;269;48.884;9.192;2022-11-20T14:38:52;1.40;;;1.10;;
568;SDS011;269;48.884;9.192;2022-11-20T14:41:21;3.10;;;1.10;;
568;SDS011;269;48.884;9.192;2022-11-20T14:43:52;1.05;;;0.95;;
568;SDS011;269;48.884;9.192;2022-11-20T14:46:22;1.27;;;1.17;;
568;SDS011;269;48.884;9.192;2022-11-20T14:48:51;3.20;;;1.00;;
568;SDS011;269;48.884;9.192;2022-11-20T14:51:29;1.52;;;1.00;;
568;SDS011;269;48.884;9.192;2022-11-20T14:54:08;1.27;;;1.05;;
568;SDS011;269;48.884;9.192;2022-11-20T14:56:40;2.08;;;1.55;;
568;SDS011;269;48.884;9.192;2022-11-20T14:59:09;1.65;;;1.33;;
568;SDS011;269;48.884;9.192;2022-11-20T15:01:37;2.38;;;1.15;;
568;SDS011;269;48.884;9.192;2022-11-20T15:04:05;1.90;;;1.45;;
568;SDS011;269;48.884;9.192;2022-11-20T15:06:35;3.72;;;1.10;;
568;SDS011;269;48.884;9.192;2022-11-20T15:09:04;3.08;;;1.05;;
568;SDS011;269;48.884;9.192;2022-11-20T15:11:40;1.40;;;1.08;;
568;SDS011;269;48.884;9.192;2022-11-20T15:14:20;3.28;;;1.23;;
568;SDS011;269;48.884;9.192;2022-11-20T15:16:48;1.88;;;1.48;;
568;SDS011;269;48.884;9.192;2022-11-20T15:19:16;2.10;;;1.50;;
568;SDS011;269;48.884;9.192;2022-11-20T15:21:45;2.88;;;1.50;;
568;SDS011;269;48.884;9.192;2022-11-20T15:24:13;1.58;;;1.48;;
568;SDS011;269;48.884;9.192;2022-11-20T15:26:40;3.95;;;1.75;;
568;SDS011;269;48.884;9.192;2022-11-20T15:29:09;2.30;;;1.40;;
568;SDS011;269;48.884;9.192;2022-11-20T15:31:39;2.53;;;2.03;;
568;SDS011;269;48.884;9.192;2022-11-20T15:34:08;3.83;;;2.20;;
568;SDS011;269;48.884;9.192;2022-11-20T15:36:38;5.05;;;2.10;;
568;SDS011;269;48.884;9.192;2022-11-20T15:39:06;3.55;;;2.00;;
568;SDS011;269;48.884;9.192;2022-11-20T15:41:33;2.22;;;2.00;;
568;SDS011;269;48.884;9.192;2022-11-20T15:44:01;2.55;;;1.90;;
568;SDS011;269;48.884;9.192;2022-11-20T15:46:29;1.92;;;1.60;;
568;SDS011;269;48.884;9.192;2022-11-20T15:49:05;2.70;;;1.50;;
568;SDS011;269;48.884;9.192;2022-11-20T15:51:37;2.85;;;1.30;;
568;SDS011;269;48.884;9.192;2022-11-20T15:54:09;1.70;;;1.60;;
568;SDS011;269;48.884;9.192;2022-11-20T15:56:37;2.42;;;1.70;;
568;SDS011;269;48.884;9.192;2022-11-20T15:59:05;1.50;;;1.40;;
568;SDS011;269;48.884;9.192;2022-11-20T16:01:32;3.10;;;1.60;;
568;SDS011;269;48.884;9.192;2022-11-20T16:04:00;1.70;;;1.60;;
568;SDS011;269;48.884;9.192;2022-11-20T16:06:29;2.10;;;1.85;;
568;SDS011;269;48.884;9.192;2022-11-20T16:08:56;3.25;;;1.85;;